sensor_id;sensor_type;location;lat;lon;timestamp;P1;durP1;ratioP1;P2;durP2;ratioP2
13408;SDS011;6775;49.574;11.170;2022-09-23T00:01:21;2.83;;;2.63;;
13408;SDS011;6775;49.574;11.170;2022-09-23T00:03:50;3.03;;;2.30;;
13408;SDS011;6775;49.574;11.170;2022-09-23T00:06:18;2.53;;;2.33;;
13408;SDS011;6775;49.574;11.170;2022-09-23T00:08:48;2.47;;;2.27;;
13408;SDS011;6775;49.574;11.170;2022-09-23T00:11:19;2.30;;;2.10;;
13408;SDS011;6775;49.574;11.170;2022-09-23T00:13:49;4.33;;;2.50;;
13408;SDS011;6775;49.574;11.170;2022-09-23T00:16:20;2.40;;;2.20;;
13408;SDS011;6775;49.574;11.170;2022-09-23T00:18:49;2.43;;;2.23;;
13408;SDS011;6775;49.574;11.170;2022-09-23T00:21:18;3.00;;;2.30;;
13408;SDS011;6775;49.574;11.170;2022-09-23T00:23:47;2.83;;;2.20;;
13408;SDS011;6775;49.574;11.170;2022-09-23T00:26:16;2.07;;;1.83;;
13408;SDS011;6775;49.574;11.170;2022-09-23T00:28:46;3.23;;;2.10;;
13408;SDS011;6775;49.574;11.170;2022-09-23T00:31:15;2.30;;;2.10;;
13408;SDS011;6775;49.574;11.170;2022-09-23T00:33:45;2.73;;;2.07;;
13408;SDS011;6775;49.574;11.170;2022-09-23T00:36:14;4.40;;;2.47;;
13408;SDS011;6775;49.574;11.170;2022-09-23T00:38:43;2.10;;;1.90;;
13408;SDS011;6775;49.574;11.170;2022-09-23T00:41:11;3.00;;;2.40;;
13408;SDS011;6775;49.574;11.170;2022-09-23T00:43:42;2.60;;;2.40;;
13408;SDS011;6775;49.574;11.170;2022-09-23T00:46:13;3.80;;;2.60;;
13408;SDS011;6775;49.574;11.170;2022-09-23T00:48:44;2.90;;;2.60;;
13408;SDS011;6775;49.574;11.170;2022-09-23T00:51:14;4.03;;;2.40;;
13408;SDS011;6775;49.574;11.170;2022-09-23T00:53:46;3.30;;;2.47;;
13408;SDS011;6775;49.574;11.170;2022-09-23T00:56:16;2.73;;;2.40;;
13408;SDS011;6775;49.574;11.170;2022-09-23T00:58:46;3.40;;;2.67;;
13408;SDS011;6775;49.574;11.170;2022-09-23T01:01:17;3.13;;;2.40;;
13408;SDS011;6775;49.574;11.170;2022-09-23T01:03:46;2.77;;;2.50;;
13408;SDS011;6775;49.574;11.170;2022-09-23T01:06:14;2.57;;;2.37;;
13408;SDS011;6775;49.574;11.170;2022-09-23T01:08:43;3.90;;;2.40;;
13408;SDS011;6775;49.574;11.170;2022-09-23T01:11:16;5.17;;;2.40;;
13408;SDS011;6775;49.574;11.170;2022-09-23T01:13:54;2.57;;;2.37;;
13408;SDS011;6775;49.574;11.170;2022-09-23T01:16:30;2.63;;;2.43;;
13408;SDS011;6775;49.574;11.170;2022-09-23T01:19:04;3.30;;;2.57;;
13408;SDS011;6775;49.574;11.170;2022-09-23T01:21:43;2.57;;;2.27;;
13408;SDS011;6775;49.574;11.170;2022-09-23T01:24:27;2.93;;;2.43;;
13408;SDS011;6775;49.574;11.170;2022-09-23T01:30:10;3.67;;;2.40;;
13408;SDS011;6775;49.574;11.170;2022-09-23T01:32:53;2.27;;;2.00;;
13408;SDS011;6775;49.574;11.170;2022-09-23T01:35:26;2.30;;;2.10;;
13408;SDS011;6775;49.574;11.170;2022-09-23T01:38:02;2.30;;;1.97;;
13408;SDS011;6775;49.574;11.170;2022-09-23T01:40:44;2.70;;;2.30;;
13408;SDS011;6775;49.574;11.170;2022-09-23T01:43:19;3.20;;;1.90;;
13408;SDS011;6775;49.574;11.170;2022-09-23T01:45:53;2.37;;;2.17;;
13408;SDS011;6775;49.574;11.170;2022-09-23T01:48:26;2.43;;;2.23;;
13408;SDS011;6775;49.574;11.170;2022-09-23T01:51:01;3.13;;;2.30;;
13408;SDS011;6775;49.574;11.170;2022-09-23T01:53:35;2.60;;;2.40;;
13408;SDS011;6775;49.574;11.170;2022-09-23T01:56:10;2.33;;;2.13;;
13408;SDS011;6775;49.574;11.170;2022-09-23T01:58:44;3.47;;;2.20;;
13408;SDS011;6775;49.574;11.170;2022-09-23T02:01:20;2.10;;;1.90;;
13408;SDS011;6775;49.574;11.170;2022-09-23T02:03:56;2.77;;;2.00;;
13408;SDS011;6775;49.574;11.170;2022-09-23T02:06:31;2.40;;;2.20;;
13408;SDS011;6775;49.574;11.170;2022-09-23T02:09:04;2.30;;;2.10;;
13408;SDS011;6775;49.574;11.170;2022-09-23T02:11:37;2.53;;;2.33;;
13408;SDS011;6775;49.574;11.170;2022-09-23T02:14:10;2.63;;;2.23;;
13408;SDS011;6775;49.574;11.170;2022-09-23T02:16:45;3.70;;;2.00;;
13408;SDS011;6775;49.574;11.170;2022-09-23T02:19:19;2.90;;;2.50;;
13408;SDS011;6775;49.574;11.170;2022-09-23T02:21:52;2.87;;;2.60;;
13408;SDS011;6775;49.574;11.170;2022-09-23T02:24:25;2.40;;;2.20;;
13408;SDS011;6775;49.574;11.170;2022-09-23T02:26:57;2.63;;;2.30;;
13408;SDS011;6775;49.574;11.170;2022-09-23T02:29:32;3.07;;;2.33;;
13408;SDS011;6775;49.574;11.170;2022-09-23T02:32:08;2.60;;;2.07;;
13408;SDS011;6775;49.574;11.170;2022-09-23T02:34:44;2.57;;;2.20;;
13408;SDS011;6775;49.574;11.170;2022-09-23T02:37:20;2.87;;;2.10;;
13408;SDS011;6775;49.574;11.170;2022-09-23T02:39:54;2.37;;;2.17;;
13408;SDS011;6775;49.574;11.170;2022-09-23T02:42:30;2.63;;;2.30;;
13408;SDS011;6775;49.574;11.170;2022-09-23T02:45:05;3.20;;;2.33;;
13408;SDS011;6775;49.574;11.170;2022-09-23T02:47:33;3.47;;;2.40;;
13408;SDS011;6775;49.574;11.170;2022-09-23T02:50:06;2.90;;;2.37;;
13408;SDS011;6775;49.574;11.170;2022-09-23T02:52:35;3.00;;;2.40;;
13408;SDS011;6775;49.574;11.170;2022-09-23T02:55:04;3.53;;;2.30;;
13408;SDS011;6775;49.574;11.170;2022-09-23T02:57:34;4.07;;;2.67;;
13408;SDS011;6775;49.574;11.170;2022-09-23T03:00:03;4.70;;;2.47;;
13408;SDS011;6775;49.574;11.170;2022-09-23T03:02:39;2.43;;;2.20;;
13408;SDS011;6775;49.574;11.170;2022-09-23T03:05:27;2.60;;;2.23;;
13408;SDS011;6775;49.574;11.170;2022-09-23T03:08:02;2.40;;;2.20;;
13408;SDS011;6775;49.574;11.170;2022-09-23T03:10:42;2.87;;;2.33;;
13408;SDS011;6775;49.574;11.170;2022-09-23T03:13:23;2.70;;;2.47;;
13408;SDS011;6775;49.574;11.170;2022-09-23T03:15:58;2.70;;;2.50;;
13408;SDS011;6775;49.574;11.170;2022-09-23T03:18:32;2.70;;;2.50;;
13408;SDS011;6775;49.574;11.170;2022-09-23T03:21:07;3.83;;;2.60;;
13408;SDS011;6775;49.574;11.170;2022-09-23T03:23:39;4.33;;;2.50;;
13408;SDS011;6775;49.574;11.170;2022-09-23T03:26:09;2.73;;;2.43;;
13408;SDS011;6775;49.574;11.170;2022-09-23T03:28:41;3.40;;;2.67;;
13408;SDS011;6775;49.574;11.170;2022-09-23T03:31:11;2.63;;;2.43;;
13408;SDS011;6775;49.574;11.170;2022-09-23T03:33:42;2.90;;;2.00;;
13408;SDS011;6775;49.574;11.170;2022-09-23T03:36:18;2.50;;;2.30;;
13408;SDS011;6775;49.574;11.170;2022-09-23T03:39:09;3.63;;;2.53;;
13408;SDS011;6775;49.574;11.170;2022-09-23T03:41:41;3.13;;;2.37;;
13408;SDS011;6775;49.574;11.170;2022-09-23T03:44:16;2.57;;;2.10;;
13408;SDS011;6775;49.574;11.170;2022-09-23T03:46:44;3.37;;;2.43;;
13408;SDS011;6775;49.574;11.170;2022-09-23T03:49:15;2.70;;;2.23;;
13408;SDS011;6775;49.574;11.170;2022-09-23T03:51:46;2.77;;;2.10;;
13408;SDS011;6775;49.574;11.170;2022-09-23T03:54:14;2.53;;;2.33;;
13408;SDS011;6775;49.574;11.170;2022-09-23T03:56:45;3.67;;;2.70;;
13408;SDS011;6775;49.574;11.170;2022-09-23T03:59:14;3.20;;;2.70;;
13408;SDS011;6775;49.574;11.170;2022-09-23T04:01:42;2.80;;;2.53;;
13408;SDS011;6775;49.574;11.170;2022-09-23T04:04:11;4.97;;;2.80;;
13408;SDS011;6775;49.574;11.170;2022-09-23T04:06:39;4.37;;;3.60;;
13408;SDS011;6775;49.574;11.170;2022-09-23T04:09:08;4.70;;;3.20;;
13408;SDS011;6775;49.574;11.170;2022-09-23T04:11:36;6.97;;;3.10;;
13408;SDS011;6775;49.574;11.170;2022-09-23T04:14:04;4.00;;;3.03;;
13408;SDS011;6775;49.574;11.170;2022-09-23T04:16:32;3.47;;;3.17;;
13408;SDS011;6775;49.574;11.170;2022-09-23T04:19:00;3.90;;;3.23;;
13408;SDS011;6775;49.574;11.170;2022-09-23T04:21:30;3.13;;;2.67;;
13408;SDS011;6775;49.574;11.170;2022-09-23T04:23:58;3.87;;;3.43;;
13408;SDS011;6775;49.574;11.170;2022-09-23T04:26:27;4.70;;;2.93;;
13408;SDS011;6775;49.574;11.170;2022-09-23T04:28:55;3.40;;;3.00;;
13408;SDS011;6775;49.574;11.170;2022-09-23T04:31:23;3.57;;;3.13;;
13408;SDS011;6775;49.574;11.170;2022-09-23T04:33:51;3.93;;;3.07;;
13408;SDS011;6775;49.574;11.170;2022-09-23T04:36:20;3.80;;;2.87;;
13408;SDS011;6775;49.574;11.170;2022-09-23T04:38:48;3.57;;;2.80;;
13408;SDS011;6775;49.574;11.170;2022-09-23T04:41:16;3.00;;;2.70;;
13408;SDS011;6775;49.574;11.170;2022-09-23T04:43:46;3.17;;;2.83;;
13408;SDS011;6775;49.574;11.170;2022-09-23T04:46:14;3.57;;;2.27;;
13408;SDS011;6775;49.574;11.170;2022-09-23T04:48:43;2.70;;;2.50;;
13408;SDS011;6775;49.574;11.170;2022-09-23T04:51:11;3.37;;;2.53;;
13408;SDS011;6775;49.574;11.170;2022-09-23T04:53:41;3.13;;;2.87;;
13408;SDS011;6775;49.574;11.170;2022-09-23T04:56:11;3.43;;;2.83;;
13408;SDS011;6775;49.574;11.170;2022-09-23T04:58:41;2.70;;;2.50;;
13408;SDS011;6775;49.574;11.170;2022-09-23T05:01:12;2.80;;;2.37;;
13408;SDS011;6775;49.574;11.170;2022-09-23T05:03:42;2.60;;;2.40;;
13408;SDS011;6775;49.574;11.170;2022-09-23T05:06:11;4.30;;;2.67;;
13408;SDS011;6775;49.574;11.170;2022-09-23T05:08:40;3.20;;;2.60;;
13408;SDS011;6775;49.574;11.170;2022-09-23T05:11:13;3.60;;;2.67;;
13408;SDS011;6775;49.574;11.170;2022-09-23T05:13:41;4.43;;;3.20;;
13408;SDS011;6775;49.574;11.170;2022-09-23T05:16:09;2.97;;;2.67;;
13408;SDS011;6775;49.574;11.170;2022-09-23T05:18:40;3.57;;;3.10;;
13408;SDS011;6775;49.574;11.170;2022-09-23T05:21:09;4.13;;;3.03;;
13408;SDS011;6775;49.574;11.170;2022-09-23T05:23:37;3.10;;;2.60;;
13408;SDS011;6775;49.574;11.170;2022-09-23T05:26:08;3.17;;;2.87;;
13408;SDS011;6775;49.574;11.170;2022-09-23T05:28:37;2.80;;;2.60;;
13408;SDS011;6775;49.574;11.170;2022-09-23T05:31:05;4.67;;;3.10;;
13408;SDS011;6775;49.574;11.170;2022-09-23T05:33:36;3.03;;;2.70;;
13408;SDS011;6775;49.574;11.170;2022-09-23T05:36:04;3.33;;;2.70;;
13408;SDS011;6775;49.574;11.170;2022-09-23T05:38:33;4.90;;;3.30;;
13408;SDS011;6775;49.574;11.170;2022-09-23T05:41:02;3.17;;;2.87;;
13408;SDS011;6775;49.574;11.170;2022-09-23T05:43:30;4.30;;;3.13;;
13408;SDS011;6775;49.574;11.170;2022-09-23T05:46:01;4.03;;;2.80;;
13408;SDS011;6775;49.574;11.170;2022-09-23T05:48:33;3.13;;;2.83;;
13408;SDS011;6775;49.574;11.170;2022-09-23T05:51:04;3.57;;;2.90;;
13408;SDS011;6775;49.574;11.170;2022-09-23T05:53:38;3.43;;;3.13;;
13408;SDS011;6775;49.574;11.170;2022-09-23T05:56:10;3.57;;;3.27;;
13408;SDS011;6775;49.574;11.170;2022-09-23T05:58:38;4.37;;;3.97;;
13408;SDS011;6775;49.574;11.170;2022-09-23T06:01:09;4.97;;;3.83;;
13408;SDS011;6775;49.574;11.170;2022-09-23T06:03:38;4.23;;;3.50;;
13408;SDS011;6775;49.574;11.170;2022-09-23T06:06:09;4.20;;;3.80;;
13408;SDS011;6775;49.574;11.170;2022-09-23T06:08:39;3.80;;;3.37;;
13408;SDS011;6775;49.574;11.170;2022-09-23T06:11:07;4.13;;;3.73;;
13408;SDS011;6775;49.574;11.170;2022-09-23T06:13:37;4.60;;;3.80;;
13408;SDS011;6775;49.574;11.170;2022-09-23T06:16:06;4.60;;;3.63;;
13408;SDS011;6775;49.574;11.170;2022-09-23T06:18:36;4.13;;;3.47;;
13408;SDS011;6775;49.574;11.170;2022-09-23T06:21:05;4.00;;;3.43;;
13408;SDS011;6775;49.574;11.170;2022-09-23T06:23:35;3.83;;;3.17;;
13408;SDS011;6775;49.574;11.170;2022-09-23T06:26:07;3.47;;;3.17;;
13408;SDS011;6775;49.574;11.170;2022-09-23T06:28:37;3.70;;;3.10;;
13408;SDS011;6775;49.574;11.170;2022-09-23T06:31:06;4.93;;;3.57;;
13408;SDS011;6775;49.574;11.170;2022-09-23T06:33:39;4.63;;;3.47;;
13408;SDS011;6775;49.574;11.170;2022-09-23T06:36:07;4.07;;;3.10;;
13408;SDS011;6775;49.574;11.170;2022-09-23T06:38:38;3.07;;;2.77;;
13408;SDS011;6775;49.574;11.170;2022-09-23T06:41:09;4.30;;;3.63;;
13408;SDS011;6775;49.574;11.170;2022-09-23T06:43:38;3.63;;;3.33;;
13408;SDS011;6775;49.574;11.170;2022-09-23T06:46:06;4.30;;;3.40;;
13408;SDS011;6775;49.574;11.170;2022-09-23T06:48:35;6.40;;;3.63;;
13408;SDS011;6775;49.574;11.170;2022-09-23T06:51:03;6.10;;;3.90;;
13408;SDS011;6775;49.574;11.170;2022-09-23T06:53:33;5.13;;;3.53;;
13408;SDS011;6775;49.574;11.170;2022-09-23T06:56:04;5.40;;;3.87;;
13408;SDS011;6775;49.574;11.170;2022-09-23T06:58:34;3.50;;;3.10;;
13408;SDS011;6775;49.574;11.170;2022-09-23T07:01:04;4.03;;;3.30;;
13408;SDS011;6775;49.574;11.170;2022-09-23T07:03:33;4.07;;;3.10;;
13408;SDS011;6775;49.574;11.170;2022-09-23T07:06:02;3.60;;;3.07;;
13408;SDS011;6775;49.574;11.170;2022-09-23T07:08:32;3.40;;;2.63;;
13408;SDS011;6775;49.574;11.170;2022-09-23T07:11:02;3.70;;;3.33;;
13408;SDS011;6775;49.574;11.170;2022-09-23T07:13:32;2.93;;;2.73;;
13408;SDS011;6775;49.574;11.170;2022-09-23T07:16:02;4.83;;;3.60;;
13408;SDS011;6775;49.574;11.170;2022-09-23T07:18:30;3.33;;;3.03;;
13408;SDS011;6775;49.574;11.170;2022-09-23T07:21:06;3.33;;;2.90;;
13408;SDS011;6775;49.574;11.170;2022-09-23T07:23:36;5.43;;;3.87;;
13408;SDS011;6775;49.574;11.170;2022-09-23T07:26:05;3.47;;;3.17;;
13408;SDS011;6775;49.574;11.170;2022-09-23T07:28:34;3.33;;;3.03;;
13408;SDS011;6775;49.574;11.170;2022-09-23T07:31:03;3.30;;;3.00;;
13408;SDS011;6775;49.574;11.170;2022-09-23T07:33:33;4.23;;;2.90;;
13408;SDS011;6775;49.574;11.170;2022-09-23T07:36:05;4.43;;;3.23;;
13408;SDS011;6775;49.574;11.170;2022-09-23T07:38:35;3.37;;;3.07;;
13408;SDS011;6775;49.574;11.170;2022-09-23T07:41:12;6.13;;;3.03;;
13408;SDS011;6775;49.574;11.170;2022-09-23T07:43:42;3.10;;;2.80;;
13408;SDS011;6775;49.574;11.170;2022-09-23T07:46:12;2.93;;;2.70;;
13408;SDS011;6775;49.574;11.170;2022-09-23T07:48:43;3.63;;;2.73;;
13408;SDS011;6775;49.574;11.170;2022-09-23T07:51:12;3.23;;;2.90;;
13408;SDS011;6775;49.574;11.170;2022-09-23T07:53:45;3.17;;;2.87;;
13408;SDS011;6775;49.574;11.170;2022-09-23T07:56:16;2.80;;;2.60;;
13408;SDS011;6775;49.574;11.170;2022-09-23T07:58:45;3.50;;;2.90;;
13408;SDS011;6775;49.574;11.170;2022-09-23T08:01:25;2.67;;;2.47;;
13408;SDS011;6775;49.574;11.170;2022-09-23T08:03:55;2.70;;;2.50;;
13408;SDS011;6775;49.574;11.170;2022-09-23T08:06:23;5.00;;;2.87;;
13408;SDS011;6775;49.574;11.170;2022-09-23T08:08:51;2.40;;;2.20;;
13408;SDS011;6775;49.574;11.170;2022-09-23T08:11:21;2.30;;;2.10;;
13408;SDS011;6775;49.574;11.170;2022-09-23T08:13:50;2.63;;;2.00;;
13408;SDS011;6775;49.574;11.170;2022-09-23T08:16:18;2.77;;;2.17;;
13408;SDS011;6775;49.574;11.170;2022-09-23T08:18:47;2.97;;;2.20;;
13408;SDS011;6775;49.574;11.170;2022-09-23T08:21:17;2.90;;;2.10;;
13408;SDS011;6775;49.574;11.170;2022-09-23T08:23:46;3.03;;;2.50;;
13408;SDS011;6775;49.574;11.170;2022-09-23T08:26:14;3.47;;;2.20;;
13408;SDS011;6775;49.574;11.170;2022-09-23T08:28:49;2.50;;;2.30;;
13408;SDS011;6775;49.574;11.170;2022-09-23T08:31:19;3.87;;;2.40;;
13408;SDS011;6775;49.574;11.170;2022-09-23T08:33:47;2.23;;;2.03;;
13408;SDS011;6775;49.574;11.170;2022-09-23T08:36:21;3.50;;;2.33;;
13408;SDS011;6775;49.574;11.170;2022-09-23T08:38:49;2.20;;;2.00;;
13408;SDS011;6775;49.574;11.170;2022-09-23T08:41:18;1.97;;;1.80;;
13408;SDS011;6775;49.574;11.170;2022-09-23T08:43:57;2.27;;;1.93;;
13408;SDS011;6775;49.574;11.170;2022-09-23T08:46:30;1.90;;;1.80;;
13408;SDS011;6775;49.574;11.170;2022-09-23T08:49:03;2.10;;;2.00;;
13408;SDS011;6775;49.574;11.170;2022-09-23T08:51:32;3.07;;;2.30;;
13408;SDS011;6775;49.574;11.170;2022-09-23T08:54:07;2.00;;;1.90;;
13408;SDS011;6775;49.574;11.170;2022-09-23T08:56:36;2.30;;;1.90;;
13408;SDS011;6775;49.574;11.170;2022-09-23T08:59:07;3.23;;;2.23;;
13408;SDS011;6775;49.574;11.170;2022-09-23T09:01:40;1.80;;;1.70;;
13408;SDS011;6775;49.574;11.170;2022-09-23T09:04:15;1.93;;;1.83;;
13408;SDS011;6775;49.574;11.170;2022-09-23T09:06:49;2.97;;;1.83;;
13408;SDS011;6775;49.574;11.170;2022-09-23T09:09:38;3.20;;;2.03;;
13408;SDS011;6775;49.574;11.170;2022-09-23T09:12:11;2.17;;;1.97;;
13408;SDS011;6775;49.574;11.170;2022-09-23T09:14:49;2.20;;;1.90;;
13408;SDS011;6775;49.574;11.170;2022-09-23T09:17:26;1.67;;;1.57;;
13408;SDS011;6775;49.574;11.170;2022-09-23T09:20:06;1.73;;;1.63;;
13408;SDS011;6775;49.574;11.170;2022-09-23T09:22:48;1.60;;;1.50;;
13408;SDS011;6775;49.574;11.170;2022-09-23T09:25:23;1.50;;;1.40;;
13408;SDS011;6775;49.574;11.170;2022-09-23T09:28:01;1.90;;;1.70;;
13408;SDS011;6775;49.574;11.170;2022-09-23T09:30:37;2.03;;;1.80;;
13408;SDS011;6775;49.574;11.170;2022-09-23T09:33:06;2.23;;;1.67;;
13408;SDS011;6775;49.574;11.170;2022-09-23T09:35:45;1.50;;;1.40;;
13408;SDS011;6775;49.574;11.170;2022-09-23T09:38:34;1.60;;;1.50;;
13408;SDS011;6775;49.574;11.170;2022-09-23T09:41:08;1.40;;;1.30;;
13408;SDS011;6775;49.574;11.170;2022-09-23T09:43:40;1.30;;;1.20;;
13408;SDS011;6775;49.574;11.170;2022-09-23T09:46:17;2.20;;;2.07;;
13408;SDS011;6775;49.574;11.170;2022-09-23T09:49:01;1.60;;;1.50;;
13408;SDS011;6775;49.574;11.170;2022-09-23T09:51:33;1.40;;;1.30;;
13408;SDS011;6775;49.574;11.170;2022-09-23T09:54:14;1.50;;;1.10;;
13408;SDS011;6775;49.574;11.170;2022-09-23T09:56:45;1.73;;;1.60;;
13408;SDS011;6775;49.574;11.170;2022-09-23T09:59:15;2.53;;;1.40;;
13408;SDS011;6775;49.574;11.170;2022-09-23T10:01:49;2.70;;;1.40;;
13408;SDS011;6775;49.574;11.170;2022-09-23T10:04:39;1.13;;;1.03;;
13408;SDS011;6775;49.574;11.170;2022-09-23T10:07:08;5.17;;;1.53;;
13408;SDS011;6775;49.574;11.170;2022-09-23T10:09:39;2.07;;;1.57;;
13408;SDS011;6775;49.574;11.170;2022-09-23T10:12:15;1.40;;;1.20;;
13408;SDS011;6775;49.574;11.170;2022-09-23T10:14:45;1.67;;;1.50;;
13408;SDS011;6775;49.574;11.170;2022-09-23T10:17:18;2.63;;;1.40;;
13408;SDS011;6775;49.574;11.170;2022-09-23T10:19:48;1.23;;;1.13;;
13408;SDS011;6775;49.574;11.170;2022-09-23T10:22:18;1.20;;;1.10;;
13408;SDS011;6775;49.574;11.170;2022-09-23T10:24:51;1.20;;;1.10;;
13408;SDS011;6775;49.574;11.170;2022-09-23T10:27:27;1.60;;;1.20;;
13408;SDS011;6775;49.574;11.170;2022-09-23T10:29:58;1.17;;;1.07;;
13408;SDS011;6775;49.574;11.170;2022-09-23T10:32:30;2.40;;;1.20;;
13408;SDS011;6775;49.574;11.170;2022-09-23T10:35:09;1.23;;;1.10;;
13408;SDS011;6775;49.574;11.170;2022-09-23T10:37:40;1.30;;;1.20;;
13408;SDS011;6775;49.574;11.170;2022-09-23T10:40:13;1.73;;;1.17;;
13408;SDS011;6775;49.574;11.170;2022-09-23T10:43:23;1.40;;;1.30;;
13408;SDS011;6775;49.574;11.170;2022-09-23T10:46:16;2.07;;;1.20;;
13408;SDS011;6775;49.574;11.170;2022-09-23T10:49:21;1.50;;;1.17;;
13408;SDS011;6775;49.574;11.170;2022-09-23T10:52:17;0.90;;;0.90;;
13408;SDS011;6775;49.574;11.170;2022-09-23T10:54:59;1.20;;;1.10;;
13408;SDS011;6775;49.574;11.170;2022-09-23T10:57:41;2.03;;;1.43;;
13408;SDS011;6775;49.574;11.170;2022-09-23T11:00:19;1.40;;;1.30;;
13408;SDS011;6775;49.574;11.170;2022-09-23T11:02:55;2.10;;;1.37;;
13408;SDS011;6775;49.574;11.170;2022-09-23T11:05:41;1.20;;;0.90;;
13408;SDS011;6775;49.574;11.170;2022-09-23T11:08:23;1.43;;;1.30;;
13408;SDS011;6775;49.574;11.170;2022-09-23T11:11:08;1.20;;;1.10;;
13408;SDS011;6775;49.574;11.170;2022-09-23T11:13:46;1.10;;;1.07;;
13408;SDS011;6775;49.574;11.170;2022-09-23T11:16:33;1.20;;;1.10;;
13408;SDS011;6775;49.574;11.170;2022-09-23T11:19:13;1.23;;;1.10;;
13408;SDS011;6775;49.574;11.170;2022-09-23T11:22:05;2.80;;;1.13;;
13408;SDS011;6775;49.574;11.170;2022-09-23T11:24:47;1.23;;;1.10;;
13408;SDS011;6775;49.574;11.170;2022-09-23T11:27:42;1.10;;;1.00;;
13408;SDS011;6775;49.574;11.170;2022-09-23T11:30:26;0.83;;;0.83;;
13408;SDS011;6775;49.574;11.170;2022-09-23T11:33:12;2.10;;;1.10;;
13408;SDS011;6775;49.574;11.170;2022-09-23T11:35:56;1.00;;;0.90;;
13408;SDS011;6775;49.574;11.170;2022-09-23T11:38:31;0.97;;;0.80;;
13408;SDS011;6775;49.574;11.170;2022-09-23T11:41:13;1.33;;;0.70;;
13408;SDS011;6775;49.574;11.170;2022-09-23T11:43:45;1.37;;;1.07;;
13408;SDS011;6775;49.574;11.170;2022-09-23T11:46:21;0.77;;;0.77;;
13408;SDS011;6775;49.574;11.170;2022-09-23T11:48:57;1.00;;;0.90;;
13408;SDS011;6775;49.574;11.170;2022-09-23T11:51:30;1.10;;;1.00;;
13408;SDS011;6775;49.574;11.170;2022-09-23T11:54:10;1.00;;;0.93;;
13408;SDS011;6775;49.574;11.170;2022-09-23T11:56:46;1.27;;;0.97;;
13408;SDS011;6775;49.574;11.170;2022-09-23T11:59:19;0.70;;;0.70;;
13408;SDS011;6775;49.574;11.170;2022-09-23T12:02:09;1.00;;;0.90;;
13408;SDS011;6775;49.574;11.170;2022-09-23T12:04:47;0.83;;;0.80;;
13408;SDS011;6775;49.574;11.170;2022-09-23T12:07:26;1.27;;;0.83;;
13408;SDS011;6775;49.574;11.170;2022-09-23T12:10:01;0.80;;;0.80;;
13408;SDS011;6775;49.574;11.170;2022-09-23T12:12:33;0.90;;;0.90;;
13408;SDS011;6775;49.574;11.170;2022-09-23T12:15:09;1.00;;;0.90;;
13408;SDS011;6775;49.574;11.170;2022-09-23T12:17:52;0.90;;;0.80;;
13408;SDS011;6775;49.574;11.170;2022-09-23T12:20:47;1.10;;;0.87;;
13408;SDS011;6775;49.574;11.170;2022-09-23T12:23:35;0.90;;;0.90;;
13408;SDS011;6775;49.574;11.170;2022-09-23T12:26:13;0.90;;;0.70;;
13408;SDS011;6775;49.574;11.170;2022-09-23T12:28:45;1.23;;;0.93;;
13408;SDS011;6775;49.574;11.170;2022-09-23T12:31:16;1.27;;;1.00;;
13408;SDS011;6775;49.574;11.170;2022-09-23T12:33:47;3.40;;;2.40;;
13408;SDS011;6775;49.574;11.170;2022-09-23T12:36:22;1.30;;;1.20;;
13408;SDS011;6775;49.574;11.170;2022-09-23T12:38:53;1.00;;;0.83;;
13408;SDS011;6775;49.574;11.170;2022-09-23T12:41:28;0.90;;;0.90;;
13408;SDS011;6775;49.574;11.170;2022-09-23T12:44:12;1.77;;;1.00;;
13408;SDS011;6775;49.574;11.170;2022-09-23T12:49:55;0.83;;;0.83;;
13408;SDS011;6775;49.574;11.170;2022-09-23T12:52:23;0.70;;;0.70;;
13408;SDS011;6775;49.574;11.170;2022-09-23T12:54:54;0.70;;;0.70;;
13408;SDS011;6775;49.574;11.170;2022-09-23T13:00:20;0.80;;;0.80;;
13408;SDS011;6775;49.574;11.170;2022-09-23T13:02:52;1.57;;;0.90;;
13408;SDS011;6775;49.574;11.170;2022-09-23T13:05:44;0.73;;;0.73;;
13408;SDS011;6775;49.574;11.170;2022-09-23T13:08:31;1.13;;;0.83;;
13408;SDS011;6775;49.574;11.170;2022-09-23T13:11:04;0.60;;;0.60;;
13408;SDS011;6775;49.574;11.170;2022-09-23T13:13:36;0.70;;;0.60;;
13408;SDS011;6775;49.574;11.170;2022-09-23T13:16:11;1.47;;;0.80;;
13408;SDS011;6775;49.574;11.170;2022-09-23T13:18:49;0.70;;;0.70;;
13408;SDS011;6775;49.574;11.170;2022-09-23T13:24:18;0.90;;;0.80;;
13408;SDS011;6775;49.574;11.170;2022-09-23T13:27:03;0.80;;;0.80;;
13408;SDS011;6775;49.574;11.170;2022-09-23T13:29:39;0.73;;;0.73;;
13408;SDS011;6775;49.574;11.170;2022-09-23T13:32:10;0.90;;;0.90;;
13408;SDS011;6775;49.574;11.170;2022-09-23T13:34:40;1.03;;;0.90;;
13408;SDS011;6775;49.574;11.170;2022-09-23T13:37:15;1.10;;;0.70;;
13408;SDS011;6775;49.574;11.170;2022-09-23T13:39:48;0.83;;;0.70;;
13408;SDS011;6775;49.574;11.170;2022-09-23T13:42:18;0.80;;;0.80;;
13408;SDS011;6775;49.574;11.170;2022-09-23T13:44:53;1.20;;;0.97;;
13408;SDS011;6775;49.574;11.170;2022-09-23T13:47:25;0.97;;;0.80;;
13408;SDS011;6775;49.574;11.170;2022-09-23T13:49:56;1.17;;;0.90;;
13408;SDS011;6775;49.574;11.170;2022-09-23T13:52:25;1.10;;;0.90;;
13408;SDS011;6775;49.574;11.170;2022-09-23T13:54:55;1.00;;;0.90;;
13408;SDS011;6775;49.574;11.170;2022-09-23T13:57:23;0.90;;;0.77;;
13408;SDS011;6775;49.574;11.170;2022-09-23T13:59:54;0.80;;;0.77;;
13408;SDS011;6775;49.574;11.170;2022-09-23T14:02:26;0.77;;;0.77;;
13408;SDS011;6775;49.574;11.170;2022-09-23T14:04:55;0.80;;;0.80;;
13408;SDS011;6775;49.574;11.170;2022-09-23T14:07:24;0.70;;;0.70;;
13408;SDS011;6775;49.574;11.170;2022-09-23T14:09:53;1.03;;;0.90;;
13408;SDS011;6775;49.574;11.170;2022-09-23T14:12:22;0.70;;;0.70;;
13408;SDS011;6775;49.574;11.170;2022-09-23T14:14:50;1.37;;;1.10;;
13408;SDS011;6775;49.574;11.170;2022-09-23T14:17:20;2.77;;;1.10;;
13408;SDS011;6775;49.574;11.170;2022-09-23T14:19:49;1.00;;;0.90;;
13408;SDS011;6775;49.574;11.170;2022-09-23T14:22:21;1.20;;;1.10;;
13408;SDS011;6775;49.574;11.170;2022-09-23T14:24:50;1.20;;;1.10;;
13408;SDS011;6775;49.574;11.170;2022-09-23T14:27:23;0.80;;;0.80;;
13408;SDS011;6775;49.574;11.170;2022-09-23T14:29:55;0.77;;;0.77;;
13408;SDS011;6775;49.574;11.170;2022-09-23T14:32:25;1.10;;;1.00;;
13408;SDS011;6775;49.574;11.170;2022-09-23T14:35:04;0.83;;;0.80;;
13408;SDS011;6775;49.574;11.170;2022-09-23T14:37:42;1.00;;;0.90;;
13408;SDS011;6775;49.574;11.170;2022-09-23T14:40:30;1.07;;;0.97;;
13408;SDS011;6775;49.574;11.170;2022-09-23T14:43:01;0.80;;;0.80;;
13408;SDS011;6775;49.574;11.170;2022-09-23T14:45:32;1.50;;;0.87;;
13408;SDS011;6775;49.574;11.170;2022-09-23T14:48:05;1.37;;;0.90;;
13408;SDS011;6775;49.574;11.170;2022-09-23T14:50:35;1.37;;;1.00;;
13408;SDS011;6775;49.574;11.170;2022-09-23T14:53:26;0.97;;;0.97;;
13408;SDS011;6775;49.574;11.170;2022-09-23T14:56:06;0.90;;;0.90;;
13408;SDS011;6775;49.574;11.170;2022-09-23T14:58:40;1.00;;;0.90;;
13408;SDS011;6775;49.574;11.170;2022-09-23T15:01:31;1.27;;;1.00;;
13408;SDS011;6775;49.574;11.170;2022-09-23T15:04:13;1.53;;;1.10;;
13408;SDS011;6775;49.574;11.170;2022-09-23T15:06:55;1.20;;;1.10;;
13408;SDS011;6775;49.574;11.170;2022-09-23T15:09:27;0.90;;;0.90;;
13408;SDS011;6775;49.574;11.170;2022-09-23T15:11:58;1.47;;;0.90;;
13408;SDS011;6775;49.574;11.170;2022-09-23T15:14:29;0.80;;;0.80;;
13408;SDS011;6775;49.574;11.170;2022-09-23T15:17:06;1.30;;;1.00;;
13408;SDS011;6775;49.574;11.170;2022-09-23T15:19:46;1.43;;;1.07;;
13408;SDS011;6775;49.574;11.170;2022-09-23T15:22:17;1.33;;;1.00;;
13408;SDS011;6775;49.574;11.170;2022-09-23T15:24:45;0.70;;;0.70;;
13408;SDS011;6775;49.574;11.170;2022-09-23T15:27:27;1.27;;;0.90;;
13408;SDS011;6775;49.574;11.170;2022-09-23T15:30:00;1.20;;;1.10;;
13408;SDS011;6775;49.574;11.170;2022-09-23T15:32:42;1.33;;;0.90;;
13408;SDS011;6775;49.574;11.170;2022-09-23T15:35:13;1.27;;;1.17;;
13408;SDS011;6775;49.574;11.170;2022-09-23T15:37:42;1.37;;;1.10;;